createdAt,value
2022-11-29T00:00:37.199Z,11.23
2022-11-29T00:05:39.585Z,11.73
2022-11-29T00:11:00.164Z,12.27
2022-11-29T00:16:04.952Z,13.63
2022-11-29T00:21:08.909Z,12.20
2022-11-29T00:26:11.387Z,10.73
2022-11-29T00:31:26.362Z,10.10
2022-11-29T00:36:28.895Z,12.15
2022-11-29T00:41:32.046Z,14.05
2022-11-29T00:46:34.356Z,11.68
2022-11-29T00:51:36.851Z,20.02
2022-11-29T00:56:39.575Z,15.30
2022-11-29T01:01:41.953Z,11.95
2022-11-29T01:06:44.260Z,11.05
2022-11-29T01:11:46.532Z,9.90
2022-11-29T01:16:48.888Z,10.07
2022-11-29T01:21:51.229Z,10.23
2022-11-29T01:26:53.407Z,10.75
2022-11-29T01:31:55.649Z,10.15
2022-11-29T01:36:58.154Z,9.02
2022-11-29T01:42:01.376Z,9.35
2022-11-29T01:47:03.894Z,11.60
2022-11-29T01:52:13.712Z,9.63
2022-11-29T01:57:17.289Z,11.18
2022-11-29T02:02:27.457Z,11.73
2022-11-29T02:07:29.921Z,10.55
2022-11-29T02:12:55.229Z,10.40
2022-11-29T02:18:09.041Z,35.33
2022-11-29T02:23:35.449Z,12.10
2022-11-29T02:28:55.777Z,11.00
2022-11-29T02:34:32.865Z,12.43
2022-11-29T02:39:53.809Z,11.43
2022-11-29T02:45:13.503Z,15.82
2022-11-29T02:50:24.648Z,14.63
2022-11-29T02:55:35.029Z,13.27
2022-11-29T03:00:47.752Z,15.70
2022-11-29T03:06:15.780Z,20.90
2022-11-29T03:11:18.235Z,16.15
2022-11-29T03:16:59.814Z,11.98
2022-11-29T03:22:12.671Z,13.30
2022-11-29T03:27:21.753Z,14.15
2022-11-29T03:32:32.530Z,17.00
2022-11-29T03:38:16.254Z,11.20
2022-11-29T03:43:31.385Z,13.38
2022-11-29T03:48:52.002Z,11.65
2022-11-29T03:59:16.199Z,13.38
2022-11-29T04:04:55.409Z,10.90
2022-11-29T04:10:12.793Z,10.23
2022-11-29T04:15:52.359Z,11.85
2022-11-29T04:21:25.362Z,11.48
2022-11-29T04:26:46.073Z,14.57
2022-11-29T04:37:27.626Z,12.73
2022-11-29T04:42:29.955Z,15.75
2022-11-29T04:47:48.416Z,22.25
2022-11-29T04:52:56.905Z,18.65
2022-11-29T04:58:07.991Z,13.68
2022-11-29T05:03:25.016Z,13.70
2022-11-29T05:08:39.310Z,17.45
2022-11-29T05:13:56.964Z,22.08
2022-11-29T05:19:10.982Z,15.57
2022-11-29T05:24:57.815Z,17.00
2022-11-29T05:30:12.349Z,26.60
2022-11-29T05:35:45.275Z,15.27
2022-11-29T05:41:07.207Z,16.33
2022-11-29T05:46:27.955Z,17.98
2022-11-29T05:51:30.243Z,15.88
2022-11-29T05:56:53.995Z,17.60
2022-11-29T06:02:15.753Z,18.40
2022-11-29T06:07:31.207Z,15.60
2022-11-29T06:12:37.930Z,19.63
2022-11-29T06:17:49.492Z,21.77
2022-11-29T06:23:09.475Z,23.00
2022-11-29T06:28:42.464Z,18.27
2022-11-29T06:34:30.973Z,22.83
2022-11-29T06:39:33.692Z,16.58
2022-11-29T06:44:36.205Z,13.68
2022-11-29T06:49:54.070Z,14.15
2022-11-29T06:55:11.208Z,21.23
2022-11-29T07:00:45.856Z,16.30
2022-11-29T07:05:48.756Z,13.43
2022-11-29T07:10:54.507Z,16.67
2022-11-29T07:16:25.489Z,20.30
2022-11-29T07:26:32.982Z,11.15
2022-11-29T07:31:56.988Z,16.13
2022-11-29T07:37:04.868Z,14.77
2022-11-29T07:42:26.580Z,11.63
2022-11-29T07:47:34.077Z,18.63
2022-11-29T07:52:37.849Z,12.73
2022-11-29T07:57:40.476Z,25.63
2022-11-29T08:02:43.182Z,23.90
2022-11-29T08:07:46.971Z,18.88
2022-11-29T08:12:51.893Z,15.48
2022-11-29T08:17:54.459Z,19.20
2022-11-29T08:22:58.874Z,13.88
2022-11-29T08:28:03.060Z,13.32
2022-11-29T08:33:05.516Z,17.48
2022-11-29T08:38:07.804Z,20.10
2022-11-29T08:43:10.103Z,15.20
2022-11-29T08:48:14.412Z,20.70
2022-11-29T08:53:35.118Z,16.45
2022-11-29T08:58:38.639Z,14.88
2022-11-29T09:03:59.787Z,13.48
2022-11-29T09:09:02.222Z,14.70
2022-11-29T09:14:07.286Z,12.52
2022-11-29T09:19:09.948Z,11.85
2022-11-29T09:24:12.451Z,13.02
2022-11-29T09:29:16.697Z,18.50
2022-11-29T09:34:19.159Z,15.55
2022-11-29T09:39:21.360Z,13.55
2022-11-29T09:44:46.729Z,20.52
2022-11-29T09:50:23.065Z,10.75
2022-11-29T09:55:50.020Z,9.65
2022-11-29T10:01:00.544Z,9.90
2022-11-29T10:06:17.819Z,12.10
2022-11-29T10:11:35.880Z,13.60
2022-11-29T10:16:53.069Z,7.22
2022-11-29T10:22:10.927Z,8.50
2022-11-29T10:27:27.525Z,7.57
2022-11-29T10:32:32.569Z,13.93
2022-11-29T10:37:35.395Z,7.32
2022-11-29T10:42:53.535Z,11.60
2022-11-29T10:48:02.484Z,13.32
2022-11-29T10:53:11.988Z,11.48
2022-11-29T10:58:18.729Z,8.18
2022-11-29T11:03:32.057Z,7.10
2022-11-29T11:08:36.203Z,7.30
2022-11-29T11:13:41.522Z,7.05
2022-11-29T11:18:45.193Z,9.15
2022-11-29T11:24:03.335Z,10.60
2022-11-29T11:29:06.097Z,8.85
2022-11-29T11:34:27.140Z,25.17
2022-11-29T11:39:29.676Z,10.88
2022-11-29T11:44:51.731Z,15.13
2022-11-29T11:50:08.630Z,10.20
2022-11-29T11:55:23.211Z,13.52
2022-11-29T12:01:03.369Z,17.05
2022-11-29T12:06:35.579Z,14.10
2022-11-29T12:11:53.903Z,12.45
2022-11-29T12:17:08.526Z,13.25
2022-11-29T12:22:16.788Z,17.00
2022-11-29T12:27:19.318Z,11.00
2022-11-29T12:32:36.313Z,9.77
2022-11-29T12:38:34.577Z,9.80
2022-11-29T12:43:55.109Z,13.52
2022-11-29T12:49:27.252Z,10.15
2022-11-29T12:54:44.351Z,14.00
2022-11-29T13:00:09.969Z,16.17
2022-11-29T13:05:25.111Z,11.30
2022-11-29T13:10:56.571Z,9.38
2022-11-29T13:16:20.530Z,13.68
2022-11-29T13:21:39.730Z,10.20
2022-11-29T13:26:43.653Z,21.33
2022-11-29T13:31:47.664Z,17.15
2022-11-29T13:37:22.714Z,20.50
2022-11-29T13:42:58.509Z,15.18
2022-11-29T13:48:02.667Z,9.52
2022-11-29T13:53:14.306Z,11.57
2022-11-29T13:58:18.091Z,15.85
2022-11-29T14:03:23.646Z,16.20
2022-11-29T14:09:01.989Z,16.67
2022-11-29T14:14:17.734Z,16.60
2022-11-29T14:19:33.072Z,18.05
2022-11-29T14:24:36.392Z,21.38
2022-11-29T14:29:50.625Z,13.18
2022-11-29T14:35:01.958Z,16.38
2022-11-29T14:40:33.999Z,13.98
2022-11-29T14:45:36.496Z,14.68
2022-11-29T14:50:42.722Z,21.48
2022-11-29T14:55:45.026Z,32.78
2022-11-29T15:00:50.174Z,24.08
2022-11-29T15:06:15.928Z,23.48
2022-11-29T15:11:32.544Z,22.15
2022-11-29T15:16:46.676Z,20.10
2022-11-29T15:22:17.374Z,17.90
2022-11-29T15:27:20.164Z,18.00
2022-11-29T15:32:32.973Z,15.68
2022-11-29T15:37:36.066Z,18.90
2022-11-29T15:42:44.125Z,16.52
2022-11-29T15:47:46.333Z,15.82
2022-11-29T15:52:48.777Z,21.67
2022-11-29T15:57:56.543Z,21.35
2022-11-29T16:03:01.838Z,22.67
2022-11-29T16:08:14.758Z,27.98
2022-11-29T16:13:58.525Z,30.67
2022-11-29T16:19:33.023Z,26.42
2022-11-29T16:24:37.223Z,24.50
2022-11-29T16:29:45.541Z,24.70
2022-11-29T16:34:48.177Z,24.83
2022-11-29T16:39:53.421Z,24.63
2022-11-29T16:45:32.663Z,25.85
2022-11-29T16:50:35.481Z,23.77
2022-11-29T16:55:37.699Z,14.05
2022-11-29T17:00:40.151Z,15.63
2022-11-29T17:05:44.859Z,26.48
2022-11-29T17:10:47.358Z,29.83
2022-11-29T17:15:49.705Z,32.10
2022-11-29T17:20:57.760Z,39.75
2022-11-29T17:26:01.016Z,24.40
2022-11-29T17:31:33.137Z,22.40
2022-11-29T17:36:35.732Z,28.17
2022-11-29T17:41:38.436Z,57.95
2022-11-29T17:46:41.755Z,52.53
2022-11-29T17:51:52.961Z,34.53
2022-11-29T17:56:55.781Z,27.17
2022-11-29T18:01:58.021Z,20.77
2022-11-29T18:07:01.997Z,22.58
2022-11-29T18:12:04.551Z,40.33
2022-11-29T18:17:06.927Z,24.80
2022-11-29T18:22:09.456Z,30.15
2022-11-29T18:27:11.872Z,25.77
2022-11-29T18:32:14.267Z,29.75
2022-11-29T18:37:32.821Z,21.88
2022-11-29T18:42:39.233Z,21.90
2022-11-29T18:47:41.443Z,24.63
2022-11-29T18:52:43.714Z,28.58
2022-11-29T18:57:49.485Z,22.73
2022-11-29T19:02:51.783Z,24.55
2022-11-29T19:07:54.136Z,24.20
2022-11-29T19:12:57.026Z,24.88
2022-11-29T19:17:59.529Z,20.05
2022-11-29T19:23:01.817Z,25.27
2022-11-29T19:28:05.902Z,21.25
2022-11-29T19:33:14.028Z,27.95
2022-11-29T19:38:16.233Z,32.83
2022-11-29T19:43:18.682Z,26.50
2022-11-29T19:48:21.143Z,120.32
2022-11-29T19:53:23.441Z,60.15
2022-11-29T19:58:26.002Z,41.78
2022-11-29T20:03:30.709Z,32.92
2022-11-29T20:08:33.237Z,33.22
2022-11-29T20:13:35.927Z,26.67
2022-11-29T20:18:40.236Z,22.27
2022-11-29T20:23:43.084Z,24.52
2022-11-29T20:28:47.303Z,23.98
2022-11-29T20:33:51.758Z,21.73
2022-11-29T20:39:01.284Z,26.25
2022-11-29T20:44:04.521Z,26.00
2022-11-29T20:49:07.154Z,28.77
2022-11-29T20:54:12.477Z,39.20
2022-11-29T20:59:14.889Z,37.42
2022-11-29T21:04:22.883Z,30.15
2022-11-29T21:09:26.284Z,24.60
2022-11-29T21:14:30.622Z,28.70
2022-11-29T21:19:33.344Z,27.80
2022-11-29T21:25:03.152Z,35.70
2022-11-29T21:30:09.458Z,41.55
2022-11-29T21:35:12.414Z,29.08
2022-11-29T21:40:15.913Z,27.13
2022-11-29T21:45:18.578Z,20.02
2022-11-29T21:50:22.712Z,23.58
2022-11-29T21:55:31.570Z,24.02
2022-11-29T22:00:37.581Z,17.93
2022-11-29T22:05:40.091Z,17.65
2022-11-29T22:10:42.388Z,17.52
2022-11-29T22:15:44.960Z,18.05
2022-11-29T22:20:49.985Z,16.23
2022-11-29T22:25:52.279Z,16.42
2022-11-29T22:31:05.662Z,16.67
2022-11-29T22:36:10.615Z,20.60
2022-11-29T22:41:14.371Z,17.20
2022-11-29T22:46:25.000Z,15.23
2022-11-29T22:51:31.099Z,20.10
2022-11-29T22:56:36.374Z,22.38
2022-11-29T23:01:40.357Z,18.13
2022-11-29T23:06:45.272Z,20.13
2022-11-29T23:11:54.051Z,20.38
2022-11-29T23:16:56.326Z,24.50
2022-11-29T23:21:58.898Z,21.90
2022-11-29T23:27:01.100Z,21.63
2022-11-29T23:32:03.533Z,27.63
2022-11-29T23:37:05.698Z,25.67
2022-11-29T23:42:08.038Z,24.52
2022-11-29T23:47:10.442Z,27.30
2022-11-29T23:52:13.102Z,28.88
2022-11-29T23:57:15.444Z,25.13
